sensor_id;sensor_type;location;lat;lon;timestamp;P1;durP1;ratioP1;P2;durP2;ratioP2
2408;SDS011;8463;48.094;7.970;2022-11-20T00:02:18;3.27;;;2.97;;
2408;SDS011;8463;48.094;7.970;2022-11-20T00:04:44;3.90;;;3.50;;
2408;SDS011;8463;48.094;7.970;2022-11-20T00:07:10;6.03;;;3.63;;
2408;SDS011;8463;48.094;7.970;2022-11-20T00:09:35;3.60;;;3.23;;
2408;SDS011;8463;48.094;7.970;2022-11-20T00:12:01;3.87;;;3.57;;
2408;SDS011;8463;48.094;7.970;2022-11-20T00:14:26;5.33;;;3.20;;
2408;SDS011;8463;48.094;7.970;2022-11-20T00:16:52;3.50;;;3.10;;
2408;SDS011;8463;48.094;7.970;2022-11-20T00:19:18;7.30;;;3.63;;
2408;SDS011;8463;48.094;7.970;2022-11-20T00:21:43;3.83;;;3.43;;
2408;SDS011;8463;48.094;7.970;2022-11-20T00:24:09;3.97;;;3.37;;
2408;SDS011;8463;48.094;7.970;2022-11-20T00:26:35;4.30;;;2.90;;
2408;SDS011;8463;48.094;7.970;2022-11-20T00:29:02;3.80;;;3.40;;
2408;SDS011;8463;48.094;7.970;2022-11-20T00:31:28;5.23;;;3.57;;
2408;SDS011;8463;48.094;7.970;2022-11-20T00:33:54;4.40;;;3.17;;
2408;SDS011;8463;48.094;7.970;2022-11-20T00:36:25;5.30;;;3.37;;
2408;SDS011;8463;48.094;7.970;2022-11-20T00:38:52;3.20;;;2.90;;
2408;SDS011;8463;48.094;7.970;2022-11-20T00:41:19;2.83;;;2.60;;
2408;SDS011;8463;48.094;7.970;2022-11-20T00:43:45;3.53;;;3.10;;
2408;SDS011;8463;48.094;7.970;2022-11-20T00:46:18;3.07;;;2.77;;
2408;SDS011;8463;48.094;7.970;2022-11-20T00:52:06;3.00;;;2.67;;
2408;SDS011;8463;48.094;7.970;2022-11-20T00:54:32;4.70;;;3.73;;
2408;SDS011;8463;48.094;7.970;2022-11-20T00:56:58;3.70;;;3.10;;
2408;SDS011;8463;48.094;7.970;2022-11-20T00:59:23;5.17;;;3.43;;
2408;SDS011;8463;48.094;7.970;2022-11-20T01:01:49;4.10;;;3.10;;
2408;SDS011;8463;48.094;7.970;2022-11-20T01:04:15;3.10;;;2.50;;
2408;SDS011;8463;48.094;7.970;2022-11-20T01:06:40;3.27;;;2.67;;
2408;SDS011;8463;48.094;7.970;2022-11-20T01:09:07;4.37;;;2.97;;
2408;SDS011;8463;48.094;7.970;2022-11-20T01:11:38;4.10;;;3.60;;
2408;SDS011;8463;48.094;7.970;2022-11-20T01:14:08;2.80;;;2.60;;
2408;SDS011;8463;48.094;7.970;2022-11-20T01:16:41;3.00;;;2.33;;
2408;SDS011;8463;48.094;7.970;2022-11-20T01:19:12;4.50;;;2.53;;
2408;SDS011;8463;48.094;7.970;2022-11-20T01:21:41;3.77;;;3.40;;
2408;SDS011;8463;48.094;7.970;2022-11-20T01:24:11;5.23;;;2.50;;
2408;SDS011;8463;48.094;7.970;2022-11-20T01:26:39;4.10;;;3.63;;
2408;SDS011;8463;48.094;7.970;2022-11-20T01:29:06;4.70;;;2.97;;
2408;SDS011;8463;48.094;7.970;2022-11-20T01:31:37;2.97;;;2.70;;
2408;SDS011;8463;48.094;7.970;2022-11-20T01:34:04;2.30;;;2.00;;
2408;SDS011;8463;48.094;7.970;2022-11-20T01:36:32;2.43;;;2.23;;
2408;SDS011;8463;48.094;7.970;2022-11-20T01:39:01;2.57;;;2.23;;
2408;SDS011;8463;48.094;7.970;2022-11-20T01:41:31;4.20;;;2.13;;
2408;SDS011;8463;48.094;7.970;2022-11-20T01:44:18;3.40;;;2.53;;
2408;SDS011;8463;48.094;7.970;2022-11-20T01:46:56;3.50;;;2.80;;
2408;SDS011;8463;48.094;7.970;2022-11-20T01:49:28;2.90;;;2.20;;
2408;SDS011;8463;48.094;7.970;2022-11-20T01:52:07;2.70;;;2.50;;
2408;SDS011;8463;48.094;7.970;2022-11-20T01:54:40;3.40;;;3.10;;
2408;SDS011;8463;48.094;7.970;2022-11-20T01:57:12;3.90;;;2.70;;
2408;SDS011;8463;48.094;7.970;2022-11-20T01:59:39;6.43;;;2.70;;
2408;SDS011;8463;48.094;7.970;2022-11-20T02:02:09;3.77;;;2.40;;
2408;SDS011;8463;48.094;7.970;2022-11-20T02:04:35;5.87;;;2.90;;
2408;SDS011;8463;48.094;7.970;2022-11-20T02:07:01;2.20;;;2.00;;
2408;SDS011;8463;48.094;7.970;2022-11-20T02:09:28;2.93;;;2.40;;
2408;SDS011;8463;48.094;7.970;2022-11-20T02:11:54;3.67;;;2.47;;
2408;SDS011;8463;48.094;7.970;2022-11-20T02:14:21;4.23;;;3.03;;
2408;SDS011;8463;48.094;7.970;2022-11-20T02:16:48;3.57;;;2.70;;
2408;SDS011;8463;48.094;7.970;2022-11-20T02:19:30;2.77;;;2.57;;
2408;SDS011;8463;48.094;7.970;2022-11-20T02:24:27;4.47;;;3.70;;
2408;SDS011;8463;48.094;7.970;2022-11-20T02:32:30;4.00;;;3.10;;
2408;SDS011;8463;48.094;7.970;2022-11-20T02:34:57;3.60;;;2.90;;
2408;SDS011;8463;48.094;7.970;2022-11-20T02:37:25;4.27;;;3.00;;
2408;SDS011;8463;48.094;7.970;2022-11-20T02:39:56;3.10;;;2.60;;
2408;SDS011;8463;48.094;7.970;2022-11-20T02:42:21;3.30;;;2.80;;
2408;SDS011;8463;48.094;7.970;2022-11-20T02:44:47;4.20;;;2.90;;
2408;SDS011;8463;48.094;7.970;2022-11-20T02:47:13;4.97;;;3.70;;
2408;SDS011;8463;48.094;7.970;2022-11-20T02:49:38;4.00;;;2.87;;
2408;SDS011;8463;48.094;7.970;2022-11-20T02:52:04;3.13;;;2.67;;
2408;SDS011;8463;48.094;7.970;2022-11-20T02:54:29;3.40;;;3.10;;
2408;SDS011;8463;48.094;7.970;2022-11-20T02:56:55;5.87;;;3.70;;
2408;SDS011;8463;48.094;7.970;2022-11-20T02:59:21;3.60;;;3.30;;
2408;SDS011;8463;48.094;7.970;2022-11-20T03:01:47;4.30;;;3.87;;
2408;SDS011;8463;48.094;7.970;2022-11-20T03:04:12;3.80;;;3.40;;
2408;SDS011;8463;48.094;7.970;2022-11-20T03:06:38;7.03;;;4.00;;
2408;SDS011;8463;48.094;7.970;2022-11-20T03:09:03;3.90;;;3.60;;
2408;SDS011;8463;48.094;7.970;2022-11-20T03:11:29;4.87;;;4.47;;
2408;SDS011;8463;48.094;7.970;2022-11-20T03:13:55;4.60;;;3.80;;
2408;SDS011;8463;48.094;7.970;2022-11-20T03:16:21;5.47;;;3.47;;
2408;SDS011;8463;48.094;7.970;2022-11-20T03:18:47;3.40;;;3.10;;
2408;SDS011;8463;48.094;7.970;2022-11-20T03:21:14;7.20;;;4.00;;
2408;SDS011;8463;48.094;7.970;2022-11-20T03:23:40;5.33;;;3.60;;
2408;SDS011;8463;48.094;7.970;2022-11-20T03:26:16;5.13;;;3.43;;
2408;SDS011;8463;48.094;7.970;2022-11-20T03:28:47;4.77;;;3.47;;
2408;SDS011;8463;48.094;7.970;2022-11-20T03:31:22;4.07;;;3.70;;
2408;SDS011;8463;48.094;7.970;2022-11-20T03:33:49;3.20;;;2.90;;
2408;SDS011;8463;48.094;7.970;2022-11-20T03:36:16;3.10;;;2.67;;
2408;SDS011;8463;48.094;7.970;2022-11-20T03:38:43;5.57;;;3.43;;
2408;SDS011;8463;48.094;7.970;2022-11-20T03:41:14;4.40;;;3.37;;
2408;SDS011;8463;48.094;7.970;2022-11-20T03:43:48;3.73;;;3.37;;
2408;SDS011;8463;48.094;7.970;2022-11-20T03:46:22;4.97;;;3.30;;
2408;SDS011;8463;48.094;7.970;2022-11-20T03:48:47;3.63;;;3.23;;
2408;SDS011;8463;48.094;7.970;2022-11-20T03:51:17;4.20;;;3.10;;
2408;SDS011;8463;48.094;7.970;2022-11-20T03:53:48;4.60;;;3.80;;
2408;SDS011;8463;48.094;7.970;2022-11-20T03:56:15;4.40;;;3.47;;
2408;SDS011;8463;48.094;7.970;2022-11-20T03:58:42;4.13;;;3.10;;
2408;SDS011;8463;48.094;7.970;2022-11-20T04:01:12;3.70;;;3.00;;
2408;SDS011;8463;48.094;7.970;2022-11-20T04:03:40;3.63;;;3.10;;
2408;SDS011;8463;48.094;7.970;2022-11-20T04:06:07;3.47;;;2.40;;
2408;SDS011;8463;48.094;7.970;2022-11-20T04:08:38;4.00;;;2.50;;
2408;SDS011;8463;48.094;7.970;2022-11-20T04:11:20;3.40;;;2.37;;
2408;SDS011;8463;48.094;7.970;2022-11-20T04:13:49;4.10;;;1.93;;
2408;SDS011;8463;48.094;7.970;2022-11-20T04:16:17;2.60;;;2.03;;
2408;SDS011;8463;48.094;7.970;2022-11-20T04:18:43;3.80;;;2.37;;
2408;SDS011;8463;48.094;7.970;2022-11-20T04:21:09;2.00;;;1.80;;
2408;SDS011;8463;48.094;7.970;2022-11-20T04:23:35;2.30;;;2.10;;
2408;SDS011;8463;48.094;7.970;2022-11-20T04:26:02;2.43;;;2.17;;
2408;SDS011;8463;48.094;7.970;2022-11-20T04:28:37;1.93;;;1.83;;
2408;SDS011;8463;48.094;7.970;2022-11-20T04:31:11;2.60;;;2.10;;
2408;SDS011;8463;48.094;7.970;2022-11-20T04:33:38;2.00;;;1.60;;
2408;SDS011;8463;48.094;7.970;2022-11-20T04:36:11;2.03;;;1.83;;
2408;SDS011;8463;48.094;7.970;2022-11-20T04:38:39;2.03;;;1.67;;
2408;SDS011;8463;48.094;7.970;2022-11-20T04:41:05;2.00;;;1.83;;
2408;SDS011;8463;48.094;7.970;2022-11-20T04:43:32;1.87;;;1.70;;
2408;SDS011;8463;48.094;7.970;2022-11-20T04:45:59;4.23;;;2.00;;
2408;SDS011;8463;48.094;7.970;2022-11-20T04:48:26;2.53;;;2.10;;
2408;SDS011;8463;48.094;7.970;2022-11-20T04:50:53;2.20;;;1.87;;
2408;SDS011;8463;48.094;7.970;2022-11-20T04:53:19;4.27;;;2.10;;
2408;SDS011;8463;48.094;7.970;2022-11-20T04:55:45;2.10;;;1.83;;
2408;SDS011;8463;48.094;7.970;2022-11-20T04:58:11;1.77;;;1.37;;
2408;SDS011;8463;48.094;7.970;2022-11-20T05:00:37;1.43;;;1.33;;
2408;SDS011;8463;48.094;7.970;2022-11-20T05:03:03;3.47;;;1.57;;
2408;SDS011;8463;48.094;7.970;2022-11-20T05:05:28;2.10;;;1.23;;
2408;SDS011;8463;48.094;7.970;2022-11-20T05:07:57;1.20;;;1.10;;
2408;SDS011;8463;48.094;7.970;2022-11-20T05:10:23;2.00;;;1.37;;
2408;SDS011;8463;48.094;7.970;2022-11-20T05:12:49;1.13;;;1.00;;
2408;SDS011;8463;48.094;7.970;2022-11-20T05:15:15;2.00;;;1.40;;
2408;SDS011;8463;48.094;7.970;2022-11-20T05:17:41;1.73;;;1.20;;
2408;SDS011;8463;48.094;7.970;2022-11-20T05:20:11;1.57;;;1.23;;
2408;SDS011;8463;48.094;7.970;2022-11-20T05:22:36;1.20;;;0.97;;
2408;SDS011;8463;48.094;7.970;2022-11-20T05:25:02;1.17;;;1.10;;
2408;SDS011;8463;48.094;7.970;2022-11-20T05:27:28;1.87;;;1.40;;
2408;SDS011;8463;48.094;7.970;2022-11-20T05:29:53;1.23;;;1.03;;
2408;SDS011;8463;48.094;7.970;2022-11-20T05:32:19;2.87;;;1.33;;
2408;SDS011;8463;48.094;7.970;2022-11-20T05:34:44;2.80;;;1.47;;
2408;SDS011;8463;48.094;7.970;2022-11-20T05:37:10;1.07;;;0.97;;
2408;SDS011;8463;48.094;7.970;2022-11-20T05:39:35;2.53;;;1.60;;
2408;SDS011;8463;48.094;7.970;2022-11-20T05:42:01;1.90;;;1.67;;
2408;SDS011;8463;48.094;7.970;2022-11-20T05:44:45;1.77;;;1.67;;
2408;SDS011;8463;48.094;7.970;2022-11-20T05:47:11;1.40;;;1.10;;
2408;SDS011;8463;48.094;7.970;2022-11-20T05:49:36;1.37;;;1.27;;
2408;SDS011;8463;48.094;7.970;2022-11-20T05:52:02;1.97;;;1.40;;
2408;SDS011;8463;48.094;7.970;2022-11-20T05:54:28;1.10;;;1.00;;
2408;SDS011;8463;48.094;7.970;2022-11-20T05:56:53;1.83;;;1.53;;
2408;SDS011;8463;48.094;7.970;2022-11-20T05:59:19;2.03;;;1.60;;
2408;SDS011;8463;48.094;7.970;2022-11-20T06:01:44;2.07;;;1.97;;
2408;SDS011;8463;48.094;7.970;2022-11-20T06:04:10;1.90;;;1.70;;
2408;SDS011;8463;48.094;7.970;2022-11-20T06:06:35;1.80;;;1.30;;
2408;SDS011;8463;48.094;7.970;2022-11-20T06:09:01;2.00;;;1.80;;
2408;SDS011;8463;48.094;7.970;2022-11-20T06:11:26;2.37;;;1.93;;
2408;SDS011;8463;48.094;7.970;2022-11-20T06:13:52;1.83;;;1.70;;
2408;SDS011;8463;48.094;7.970;2022-11-20T06:16:19;1.67;;;1.57;;
2408;SDS011;8463;48.094;7.970;2022-11-20T06:18:45;1.30;;;1.20;;
2408;SDS011;8463;48.094;7.970;2022-11-20T06:21:12;3.20;;;1.67;;
2408;SDS011;8463;48.094;7.970;2022-11-20T06:23:40;2.13;;;1.90;;
2408;SDS011;8463;48.094;7.970;2022-11-20T06:26:07;2.10;;;1.90;;
2408;SDS011;8463;48.094;7.970;2022-11-20T06:28:37;2.43;;;1.90;;
2408;SDS011;8463;48.094;7.970;2022-11-20T06:31:03;2.03;;;1.47;;
2408;SDS011;8463;48.094;7.970;2022-11-20T06:33:29;1.60;;;1.50;;
2408;SDS011;8463;48.094;7.970;2022-11-20T06:35:59;2.83;;;2.60;;
2408;SDS011;8463;48.094;7.970;2022-11-20T06:38:25;1.83;;;1.47;;
2408;SDS011;8463;48.094;7.970;2022-11-20T06:40:52;2.60;;;1.50;;
2408;SDS011;8463;48.094;7.970;2022-11-20T06:43:18;2.33;;;1.80;;
2408;SDS011;8463;48.094;7.970;2022-11-20T06:45:44;2.67;;;1.60;;
2408;SDS011;8463;48.094;7.970;2022-11-20T06:48:10;2.30;;;1.63;;
2408;SDS011;8463;48.094;7.970;2022-11-20T06:50:36;2.60;;;1.73;;
2408;SDS011;8463;48.094;7.970;2022-11-20T06:53:02;1.70;;;1.60;;
2408;SDS011;8463;48.094;7.970;2022-11-20T06:55:29;2.23;;;1.60;;
2408;SDS011;8463;48.094;7.970;2022-11-20T06:57:56;2.27;;;1.63;;
2408;SDS011;8463;48.094;7.970;2022-11-20T07:00:22;2.10;;;1.90;;
2408;SDS011;8463;48.094;7.970;2022-11-20T07:02:47;1.83;;;1.60;;
2408;SDS011;8463;48.094;7.970;2022-11-20T07:05:13;2.93;;;2.20;;
2408;SDS011;8463;48.094;7.970;2022-11-20T07:07:38;2.07;;;1.97;;
2408;SDS011;8463;48.094;7.970;2022-11-20T07:10:04;10.90;;;7.70;;
2408;SDS011;8463;48.094;7.970;2022-11-20T07:12:30;3.43;;;2.13;;
2408;SDS011;8463;48.094;7.970;2022-11-20T07:14:56;2.13;;;1.70;;
2408;SDS011;8463;48.094;7.970;2022-11-20T07:17:22;1.70;;;1.60;;
2408;SDS011;8463;48.094;7.970;2022-11-20T07:19:47;2.40;;;2.20;;
2408;SDS011;8463;48.094;7.970;2022-11-20T07:22:13;1.70;;;1.60;;
2408;SDS011;8463;48.094;7.970;2022-11-20T07:24:38;2.20;;;1.90;;
2408;SDS011;8463;48.094;7.970;2022-11-20T07:27:04;2.43;;;2.13;;
2408;SDS011;8463;48.094;7.970;2022-11-20T07:29:30;2.83;;;1.87;;
2408;SDS011;8463;48.094;7.970;2022-11-20T07:31:55;2.27;;;2.00;;
2408;SDS011;8463;48.094;7.970;2022-11-20T07:34:21;1.97;;;1.83;;
2408;SDS011;8463;48.094;7.970;2022-11-20T07:36:47;2.07;;;1.90;;
2408;SDS011;8463;48.094;7.970;2022-11-20T07:39:13;4.30;;;1.80;;
2408;SDS011;8463;48.094;7.970;2022-11-20T07:41:38;2.53;;;2.23;;
2408;SDS011;8463;48.094;7.970;2022-11-20T07:44:04;2.60;;;2.40;;
2408;SDS011;8463;48.094;7.970;2022-11-20T07:46:30;3.50;;;2.30;;
2408;SDS011;8463;48.094;7.970;2022-11-20T07:48:56;6.80;;;2.40;;
2408;SDS011;8463;48.094;7.970;2022-11-20T07:51:21;3.40;;;2.80;;
2408;SDS011;8463;48.094;7.970;2022-11-20T07:53:47;1.97;;;1.87;;
2408;SDS011;8463;48.094;7.970;2022-11-20T07:56:15;2.70;;;2.23;;
2408;SDS011;8463;48.094;7.970;2022-11-20T07:58:40;2.90;;;2.43;;
2408;SDS011;8463;48.094;7.970;2022-11-20T08:01:06;2.20;;;1.77;;
2408;SDS011;8463;48.094;7.970;2022-11-20T08:03:32;2.83;;;2.13;;
2408;SDS011;8463;48.094;7.970;2022-11-20T08:05:59;2.63;;;2.43;;
2408;SDS011;8463;48.094;7.970;2022-11-20T08:08:34;2.23;;;2.03;;
2408;SDS011;8463;48.094;7.970;2022-11-20T08:11:00;2.50;;;2.30;;
2408;SDS011;8463;48.094;7.970;2022-11-20T08:13:44;3.07;;;1.87;;
2408;SDS011;8463;48.094;7.970;2022-11-20T08:16:28;2.30;;;1.73;;
2408;SDS011;8463;48.094;7.970;2022-11-20T08:18:54;2.60;;;2.40;;
2408;SDS011;8463;48.094;7.970;2022-11-20T08:21:20;3.63;;;3.33;;
2408;SDS011;8463;48.094;7.970;2022-11-20T08:23:45;2.77;;;2.50;;
2408;SDS011;8463;48.094;7.970;2022-11-20T08:26:11;2.20;;;1.80;;
2408;SDS011;8463;48.094;7.970;2022-11-20T08:28:37;2.43;;;1.97;;
2408;SDS011;8463;48.094;7.970;2022-11-20T08:31:03;2.43;;;2.23;;
2408;SDS011;8463;48.094;7.970;2022-11-20T08:33:29;2.57;;;2.10;;
2408;SDS011;8463;48.094;7.970;2022-11-20T08:36:01;3.10;;;2.80;;
2408;SDS011;8463;48.094;7.970;2022-11-20T08:38:27;2.73;;;2.50;;
2408;SDS011;8463;48.094;7.970;2022-11-20T08:40:56;1.63;;;1.53;;
2408;SDS011;8463;48.094;7.970;2022-11-20T08:43:41;2.77;;;2.50;;
2408;SDS011;8463;48.094;7.970;2022-11-20T08:46:07;2.37;;;2.17;;
2408;SDS011;8463;48.094;7.970;2022-11-20T08:48:32;2.60;;;2.27;;
2408;SDS011;8463;48.094;7.970;2022-11-20T08:50:58;2.93;;;2.60;;
2408;SDS011;8463;48.094;7.970;2022-11-20T08:53:24;3.23;;;2.17;;
2408;SDS011;8463;48.094;7.970;2022-11-20T08:55:50;5.07;;;2.50;;
2408;SDS011;8463;48.094;7.970;2022-11-20T08:58:16;2.03;;;1.83;;
2408;SDS011;8463;48.094;7.970;2022-11-20T09:00:41;2.63;;;2.43;;
2408;SDS011;8463;48.094;7.970;2022-11-20T09:03:07;2.67;;;2.10;;
2408;SDS011;8463;48.094;7.970;2022-11-20T09:05:32;2.87;;;1.90;;
2408;SDS011;8463;48.094;7.970;2022-11-20T09:07:58;2.13;;;2.00;;
2408;SDS011;8463;48.094;7.970;2022-11-20T09:10:24;3.73;;;2.60;;
2408;SDS011;8463;48.094;7.970;2022-11-20T09:12:51;4.00;;;2.63;;
2408;SDS011;8463;48.094;7.970;2022-11-20T09:15:17;3.87;;;3.00;;
2408;SDS011;8463;48.094;7.970;2022-11-20T09:20:23;3.40;;;2.93;;
2408;SDS011;8463;48.094;7.970;2022-11-20T09:22:49;6.33;;;3.70;;
2408;SDS011;8463;48.094;7.970;2022-11-20T09:25:15;4.60;;;4.00;;
2408;SDS011;8463;48.094;7.970;2022-11-20T09:27:41;3.70;;;3.10;;
2408;SDS011;8463;48.094;7.970;2022-11-20T09:30:09;6.20;;;2.80;;
2408;SDS011;8463;48.094;7.970;2022-11-20T09:32:35;3.67;;;3.30;;
2408;SDS011;8463;48.094;7.970;2022-11-20T09:35:00;4.40;;;2.90;;
2408;SDS011;8463;48.094;7.970;2022-11-20T09:37:26;4.07;;;3.03;;
2408;SDS011;8463;48.094;7.970;2022-11-20T09:39:52;2.93;;;2.63;;
2408;SDS011;8463;48.094;7.970;2022-11-20T09:42:31;2.30;;;1.83;;
2408;SDS011;8463;48.094;7.970;2022-11-20T09:45:18;1.93;;;1.80;;
2408;SDS011;8463;48.094;7.970;2022-11-20T09:50:36;2.43;;;1.93;;
2408;SDS011;8463;48.094;7.970;2022-11-20T09:53:40;3.47;;;2.67;;
2408;SDS011;8463;48.094;7.970;2022-11-20T09:56:26;2.40;;;1.63;;
2408;SDS011;8463;48.094;7.970;2022-11-20T09:58:53;3.40;;;2.77;;
2408;SDS011;8463;48.094;7.970;2022-11-20T10:01:32;4.00;;;2.70;;
2408;SDS011;8463;48.094;7.970;2022-11-20T10:04:02;3.53;;;1.63;;
2408;SDS011;8463;48.094;7.970;2022-11-20T10:06:37;4.77;;;3.60;;
2408;SDS011;8463;48.094;7.970;2022-11-20T10:14:25;2.03;;;1.83;;
2408;SDS011;8463;48.094;7.970;2022-11-20T10:17:05;8.70;;;3.17;;
2408;SDS011;8463;48.094;7.970;2022-11-20T10:22:26;2.80;;;2.47;;
2408;SDS011;8463;48.094;7.970;2022-11-20T10:30:14;2.63;;;2.10;;
2408;SDS011;8463;48.094;7.970;2022-11-20T10:32:42;3.70;;;2.40;;
2408;SDS011;8463;48.094;7.970;2022-11-20T10:37:44;4.40;;;3.23;;
2408;SDS011;8463;48.094;7.970;2022-11-20T10:42:46;2.70;;;2.33;;
2408;SDS011;8463;48.094;7.970;2022-11-20T10:47:54;2.20;;;1.93;;
2408;SDS011;8463;48.094;7.970;2022-11-20T10:50:40;4.73;;;3.17;;
2408;SDS011;8463;48.094;7.970;2022-11-20T10:56:19;4.10;;;2.63;;
2408;SDS011;8463;48.094;7.970;2022-11-20T11:01:53;2.30;;;2.10;;
2408;SDS011;8463;48.094;7.970;2022-11-20T11:07:00;3.00;;;2.47;;
2408;SDS011;8463;48.094;7.970;2022-11-20T11:09:39;4.10;;;3.70;;
2408;SDS011;8463;48.094;7.970;2022-11-20T11:12:09;3.00;;;2.80;;
2408;SDS011;8463;48.094;7.970;2022-11-20T11:14:42;5.43;;;3.30;;
2408;SDS011;8463;48.094;7.970;2022-11-20T11:17:22;6.50;;;3.77;;
2408;SDS011;8463;48.094;7.970;2022-11-20T11:22:52;3.53;;;2.37;;
2408;SDS011;8463;48.094;7.970;2022-11-20T11:27:53;2.23;;;2.10;;
2408;SDS011;8463;48.094;7.970;2022-11-20T11:30:21;3.13;;;2.07;;
2408;SDS011;8463;48.094;7.970;2022-11-20T11:32:47;4.30;;;2.50;;
2408;SDS011;8463;48.094;7.970;2022-11-20T11:35:27;2.70;;;2.13;;
2408;SDS011;8463;48.094;7.970;2022-11-20T11:38:04;2.90;;;2.60;;
2408;SDS011;8463;48.094;7.970;2022-11-20T11:40:33;3.47;;;2.60;;
2408;SDS011;8463;48.094;7.970;2022-11-20T11:43:01;3.20;;;2.67;;
2408;SDS011;8463;48.094;7.970;2022-11-20T11:45:30;2.67;;;2.33;;
2408;SDS011;8463;48.094;7.970;2022-11-20T11:48:00;1.50;;;1.40;;
2408;SDS011;8463;48.094;7.970;2022-11-20T11:50:28;2.33;;;2.13;;
2408;SDS011;8463;48.094;7.970;2022-11-20T11:53:13;4.63;;;2.57;;
2408;SDS011;8463;48.094;7.970;2022-11-20T11:55:43;2.03;;;1.20;;
2408;SDS011;8463;48.094;7.970;2022-11-20T11:58:33;2.30;;;2.10;;
2408;SDS011;8463;48.094;7.970;2022-11-20T12:04:14;3.30;;;2.50;;
2408;SDS011;8463;48.094;7.970;2022-11-20T12:06:53;2.73;;;2.40;;
2408;SDS011;8463;48.094;7.970;2022-11-20T12:09:32;4.23;;;2.13;;
2408;SDS011;8463;48.094;7.970;2022-11-20T12:15:04;2.37;;;2.17;;
2408;SDS011;8463;48.094;7.970;2022-11-20T12:17:35;1.60;;;1.30;;
2408;SDS011;8463;48.094;7.970;2022-11-20T12:20:01;1.50;;;1.37;;
2408;SDS011;8463;48.094;7.970;2022-11-20T12:22:30;1.53;;;1.20;;
2408;SDS011;8463;48.094;7.970;2022-11-20T12:30:19;1.53;;;1.43;;
2408;SDS011;8463;48.094;7.970;2022-11-20T12:47:29;2.53;;;1.70;;
2408;SDS011;8463;48.094;7.970;2022-11-20T12:50:28;2.10;;;1.90;;
2408;SDS011;8463;48.094;7.970;2022-11-20T12:55:47;1.33;;;1.20;;
2408;SDS011;8463;48.094;7.970;2022-11-20T13:01:02;2.73;;;1.87;;
2408;SDS011;8463;48.094;7.970;2022-11-20T13:06:46;2.00;;;1.60;;
2408;SDS011;8463;48.094;7.970;2022-11-20T13:09:14;3.23;;;2.00;;
2408;SDS011;8463;48.094;7.970;2022-11-20T13:20:06;3.50;;;2.10;;
2408;SDS011;8463;48.094;7.970;2022-11-20T13:22:44;2.33;;;1.67;;
2408;SDS011;8463;48.094;7.970;2022-11-20T13:25:32;2.10;;;1.90;;
2408;SDS011;8463;48.094;7.970;2022-11-20T13:28:00;4.70;;;1.70;;
2408;SDS011;8463;48.094;7.970;2022-11-20T13:30:53;1.77;;;1.40;;
2408;SDS011;8463;48.094;7.970;2022-11-20T13:33:33;2.30;;;1.50;;
2408;SDS011;8463;48.094;7.970;2022-11-20T13:36:04;2.90;;;2.53;;
2408;SDS011;8463;48.094;7.970;2022-11-20T13:38:46;1.80;;;1.70;;
2408;SDS011;8463;48.094;7.970;2022-11-20T13:41:22;1.90;;;1.40;;
2408;SDS011;8463;48.094;7.970;2022-11-20T13:43:54;2.40;;;1.60;;
2408;SDS011;8463;48.094;7.970;2022-11-20T13:46:34;2.80;;;1.90;;
2408;SDS011;8463;48.094;7.970;2022-11-20T13:49:14;2.43;;;1.53;;
2408;SDS011;8463;48.094;7.970;2022-11-20T13:51:51;2.20;;;1.83;;
2408;SDS011;8463;48.094;7.970;2022-11-20T13:54:44;2.43;;;1.80;;
2408;SDS011;8463;48.094;7.970;2022-11-20T13:57:30;3.03;;;1.50;;
2408;SDS011;8463;48.094;7.970;2022-11-20T14:00:18;6.23;;;1.77;;
2408;SDS011;8463;48.094;7.970;2022-11-20T14:02:51;2.13;;;1.60;;
2408;SDS011;8463;48.094;7.970;2022-11-20T14:05:27;2.00;;;1.07;;
2408;SDS011;8463;48.094;7.970;2022-11-20T14:07:55;1.97;;;1.60;;
2408;SDS011;8463;48.094;7.970;2022-11-20T14:10:26;1.73;;;1.13;;
2408;SDS011;8463;48.094;7.970;2022-11-20T14:12:53;1.40;;;1.20;;
2408;SDS011;8463;48.094;7.970;2022-11-20T14:15:29;1.73;;;1.30;;
2408;SDS011;8463;48.094;7.970;2022-11-20T14:17:57;3.63;;;1.90;;
2408;SDS011;8463;48.094;7.970;2022-11-20T14:20:24;2.07;;;1.43;;
2408;SDS011;8463;48.094;7.970;2022-11-20T14:22:53;1.90;;;1.47;;
2408;SDS011;8463;48.094;7.970;2022-11-20T14:25:23;1.20;;;1.10;;
2408;SDS011;8463;48.094;7.970;2022-11-20T14:27:58;2.67;;;1.30;;
2408;SDS011;8463;48.094;7.970;2022-11-20T14:30:26;3.23;;;1.63;;
2408;SDS011;8463;48.094;7.970;2022-11-20T14:33:00;2.07;;;1.37;;
2408;SDS011;8463;48.094;7.970;2022-11-20T14:35:33;2.30;;;1.50;;
2408;SDS011;8463;48.094;7.970;2022-11-20T14:38:02;1.97;;;1.37;;
2408;SDS011;8463;48.094;7.970;2022-11-20T14:40:30;1.50;;;1.40;;
2408;SDS011;8463;48.094;7.970;2022-11-20T14:42:58;2.80;;;1.70;;
2408;SDS011;8463;48.094;7.970;2022-11-20T14:45:25;1.50;;;1.13;;
2408;SDS011;8463;48.094;7.970;2022-11-20T14:47:51;2.40;;;1.53;;
2408;SDS011;8463;48.094;7.970;2022-11-20T14:50:23;4.07;;;3.47;;
2408;SDS011;8463;48.094;7.970;2022-11-20T14:52:55;5.07;;;2.70;;
2408;SDS011;8463;48.094;7.970;2022-11-20T14:55:29;3.57;;;2.23;;
2408;SDS011;8463;48.094;7.970;2022-11-20T14:57:58;2.40;;;1.30;;
2408;SDS011;8463;48.094;7.970;2022-11-20T15:00:28;1.60;;;1.50;;
2408;SDS011;8463;48.094;7.970;2022-11-20T15:02:55;3.90;;;2.10;;
2408;SDS011;8463;48.094;7.970;2022-11-20T15:05:22;8.23;;;2.50;;
2408;SDS011;8463;48.094;7.970;2022-11-20T15:07:52;4.13;;;2.57;;
2408;SDS011;8463;48.094;7.970;2022-11-20T15:10:31;2.70;;;1.83;;
2408;SDS011;8463;48.094;7.970;2022-11-20T15:13:00;2.67;;;1.97;;
2408;SDS011;8463;48.094;7.970;2022-11-20T15:15:52;4.30;;;2.30;;
2408;SDS011;8463;48.094;7.970;2022-11-20T15:18:23;2.30;;;1.53;;
2408;SDS011;8463;48.094;7.970;2022-11-20T15:20:55;2.77;;;2.40;;
2408;SDS011;8463;48.094;7.970;2022-11-20T15:23:22;6.57;;;3.47;;
2408;SDS011;8463;48.094;7.970;2022-11-20T15:25:49;3.80;;;1.80;;
2408;SDS011;8463;48.094;7.970;2022-11-20T15:28:16;2.03;;;1.83;;
2408;SDS011;8463;48.094;7.970;2022-11-20T15:30:43;3.63;;;2.00;;
2408;SDS011;8463;48.094;7.970;2022-11-20T15:33:09;1.70;;;1.53;;
2408;SDS011;8463;48.094;7.970;2022-11-20T15:35:35;7.50;;;3.00;;
2408;SDS011;8463;48.094;7.970;2022-11-20T15:38:01;2.70;;;2.50;;
2408;SDS011;8463;48.094;7.970;2022-11-20T15:40:26;2.90;;;2.30;;
2408;SDS011;8463;48.094;7.970;2022-11-20T15:42:52;5.03;;;2.43;;
2408;SDS011;8463;48.094;7.970;2022-11-20T15:45:41;2.50;;;1.87;;
2408;SDS011;8463;48.094;7.970;2022-11-20T15:48:20;2.13;;;1.50;;
2408;SDS011;8463;48.094;7.970;2022-11-20T15:50:54;2.60;;;1.10;;
2408;SDS011;8463;48.094;7.970;2022-11-20T15:53:28;2.73;;;2.43;;
2408;SDS011;8463;48.094;7.970;2022-11-20T15:55:54;2.50;;;1.30;;
2408;SDS011;8463;48.094;7.970;2022-11-20T15:58:19;1.40;;;1.30;;
2408;SDS011;8463;48.094;7.970;2022-11-20T16:00:47;1.77;;;1.60;;
2408;SDS011;8463;48.094;7.970;2022-11-20T16:03:13;1.77;;;1.27;;
2408;SDS011;8463;48.094;7.970;2022-11-20T16:05:43;2.60;;;1.87;;
2408;SDS011;8463;48.094;7.970;2022-11-20T16:08:08;2.30;;;1.93;;
2408;SDS011;8463;48.094;7.970;2022-11-20T16:10:34;2.90;;;1.47;;
2408;SDS011;8463;48.094;7.970;2022-11-20T16:13:01;2.83;;;1.90;;
2408;SDS011;8463;48.094;7.970;2022-11-20T16:15:46;6.30;;;2.70;;
2408;SDS011;8463;48.094;7.970;2022-11-20T16:18:17;2.73;;;2.03;;
2408;SDS011;8463;48.094;7.970;2022-11-20T16:20:44;12.40;;;6.20;;
2408;SDS011;8463;48.094;7.970;2022-11-20T16:23:11;10.90;;;5.47;;
2408;SDS011;8463;48.094;7.970;2022-11-20T16:25:37;3.47;;;1.80;;
2408;SDS011;8463;48.094;7.970;2022-11-20T16:28:02;3.10;;;2.10;;
2408;SDS011;8463;48.094;7.970;2022-11-20T16:30:29;2.77;;;2.00;;
2408;SDS011;8463;48.094;7.970;2022-11-20T16:32:56;1.43;;;1.30;;
2408;SDS011;8463;48.094;7.970;2022-11-20T16:35:22;2.83;;;1.43;;
2408;SDS011;8463;48.094;7.970;2022-11-20T16:37:48;1.60;;;1.50;;
2408;SDS011;8463;48.094;7.970;2022-11-20T16:40:13;2.60;;;1.60;;
2408;SDS011;8463;48.094;7.970;2022-11-20T16:42:39;1.60;;;1.20;;
2408;SDS011;8463;48.094;7.970;2022-11-20T16:45:05;1.70;;;1.30;;
2408;SDS011;8463;48.094;7.970;2022-11-20T16:47:34;1.97;;;1.77;;
2408;SDS011;8463;48.094;7.970;2022-11-20T16:50:00;1.70;;;1.40;;
2408;SDS011;8463;48.094;7.970;2022-11-20T16:52:26;2.10;;;1.67;;
2408;SDS011;8463;48.094;7.970;2022-11-20T16:54:52;1.77;;;1.67;;
2408;SDS011;8463;48.094;7.970;2022-11-20T16:57:18;2.80;;;1.43;;
2408;SDS011;8463;48.094;7.970;2022-11-20T16:59:44;1.10;;;1.00;;
2408;SDS011;8463;48.094;7.970;2022-11-20T17:02:09;3.50;;;3.20;;
2408;SDS011;8463;48.094;7.970;2022-11-20T17:04:35;2.40;;;1.67;;